createdAt,value
2022-11-23T00:01:28.986Z,100.00
2022-11-23T00:16:30.696Z,100.00
2022-11-23T00:31:32.147Z,100.00
2022-11-23T00:46:33.612Z,100.00
2022-11-23T01:01:37.102Z,100.00
2022-11-23T01:16:40.170Z,100.00
2022-11-23T01:31:46.161Z,100.00
2022-11-23T01:46:48.377Z,100.00
2022-11-23T02:01:49.834Z,100.00
2022-11-23T02:16:51.528Z,100.00
2022-11-23T02:31:53.292Z,100.00
2022-11-23T02:46:54.984Z,100.00
2022-11-23T03:01:56.553Z,100.00
2022-11-23T03:16:58.433Z,100.00
2022-11-23T03:31:59.915Z,100.00
2022-11-23T03:47:01.427Z,100.00
2022-11-23T04:02:02.887Z,100.00
2022-11-23T04:17:04.403Z,100.00
2022-11-23T04:32:05.845Z,100.00
2022-11-23T04:47:07.794Z,100.00
2022-11-23T05:02:10.279Z,100.00
2022-11-23T05:17:11.812Z,100.00
2022-11-23T05:32:13.271Z,100.00
2022-11-23T05:47:14.728Z,100.00
2022-11-23T06:02:16.277Z,100.00
2022-11-23T06:17:17.744Z,100.00
2022-11-23T06:32:19.249Z,100.00
2022-11-23T06:47:25.714Z,100.00
2022-11-23T07:02:28.035Z,100.00
2022-11-23T07:17:29.549Z,100.00
2022-11-23T07:32:31.005Z,100.00
2022-11-23T07:47:32.659Z,100.00
2022-11-23T08:02:34.131Z,100.00
2022-11-23T08:17:35.626Z,100.00
2022-11-23T08:32:37.124Z,100.00
2022-11-23T08:47:38.578Z,100.00
2022-11-23T09:02:40.027Z,100.00
2022-11-23T09:17:41.599Z,97.88
2022-11-23T09:32:43.220Z,99.37
2022-11-23T09:48:03.293Z,98.55
2022-11-23T10:03:04.833Z,74.95
2022-11-23T10:18:24.949Z,89.85
2022-11-23T10:33:31.555Z,81.41
2022-11-23T10:48:34.275Z,67.77
2022-11-23T11:03:35.807Z,75.67
2022-11-23T11:18:38.031Z,76.15
2022-11-23T11:33:46.569Z,61.29
2022-11-23T11:49:00.268Z,53.44
2022-11-23T12:04:07.061Z,56.56
2022-11-23T12:19:18.490Z,56.31
2022-11-23T12:34:19.953Z,57.32
2022-11-23T12:49:27.376Z,57.71
2022-11-23T13:04:47.652Z,55.84
2022-11-23T13:20:09.241Z,54.72
2022-11-23T13:35:13.793Z,54.00
2022-11-23T13:50:19.313Z,53.53
2022-11-23T14:05:39.569Z,57.34
2022-11-23T14:20:41.192Z,53.75
2022-11-23T14:35:49.229Z,55.98
2022-11-23T14:51:00.512Z,58.07
2022-11-23T15:06:14.455Z,58.80
2022-11-23T15:21:27.692Z,57.61
2022-11-23T15:36:38.309Z,58.46
2022-11-23T15:51:41.011Z,62.65
2022-11-23T16:06:47.070Z,55.20
2022-11-23T16:21:48.958Z,60.70
2022-11-23T16:36:50.732Z,62.99
2022-11-23T16:51:57.019Z,70.56
2022-11-23T17:06:58.953Z,69.27
2022-11-23T17:22:00.434Z,66.71
2022-11-23T17:37:02.003Z,76.18
2022-11-23T17:52:03.619Z,60.60
2022-11-23T18:07:05.534Z,68.46
2022-11-23T18:22:07.207Z,73.07
2022-11-23T18:37:08.673Z,70.00
2022-11-23T18:52:13.966Z,68.75
2022-11-23T19:07:15.689Z,71.68
2022-11-23T19:22:17.228Z,84.08
2022-11-23T19:37:18.769Z,82.32
2022-11-23T19:52:20.434Z,82.60
2022-11-23T20:07:22.110Z,85.91
2022-11-23T20:22:23.709Z,81.80
2022-11-23T20:37:25.191Z,83.89
2022-11-23T20:52:26.716Z,85.42
2022-11-23T21:07:28.320Z,95.07
2022-11-23T21:22:29.818Z,85.22
2022-11-23T21:37:31.796Z,84.31
2022-11-23T21:52:33.238Z,87.99
2022-11-23T22:16:19.388Z,99.60
2022-11-23T22:31:22.097Z,97.91
2022-11-23T22:46:24.364Z,91.79
2022-11-23T23:01:29.771Z,94.53
2022-11-23T23:16:31.457Z,100.00
2022-11-23T23:31:33.132Z,100.00
2022-11-23T23:46:34.698Z,100.00
